sensor_id;sensor_type;location;lat;lon;timestamp;temperature;humidity
7502;DHT22;3792;47.740;7.606;2023-03-12T00:02:21;5.30;99.90
7502;DHT22;3792;47.740;7.606;2023-03-12T00:04:48;5.40;99.90
7502;DHT22;3792;47.740;7.606;2023-03-12T00:07:17;5.40;99.90
7502;DHT22;3792;47.740;7.606;2023-03-12T00:09:44;5.40;99.90
7502;DHT22;3792;47.740;7.606;2023-03-12T00:12:11;5.30;99.90
7502;DHT22;3792;47.740;7.606;2023-03-12T00:14:38;5.30;99.90
7502;DHT22;3792;47.740;7.606;2023-03-12T00:17:05;5.30;99.90
7502;DHT22;3792;47.740;7.606;2023-03-12T00:19:32;5.20;99.90
7502;DHT22;3792;47.740;7.606;2023-03-12T00:21:59;5.30;99.90
7502;DHT22;3792;47.740;7.606;2023-03-12T00:24:28;5.20;99.90
7502;DHT22;3792;47.740;7.606;2023-03-12T00:26:55;5.30;99.90
7502;DHT22;3792;47.740;7.606;2023-03-12T00:29:22;5.30;99.90
7502;DHT22;3792;47.740;7.606;2023-03-12T00:31:49;5.20;99.90
7502;DHT22;3792;47.740;7.606;2023-03-12T00:34:16;5.20;99.90
7502;DHT22;3792;47.740;7.606;2023-03-12T00:36:43;5.10;99.90
7502;DHT22;3792;47.740;7.606;2023-03-12T00:39:10;5.10;99.90
7502;DHT22;3792;47.740;7.606;2023-03-12T00:41:38;5.10;99.90
7502;DHT22;3792;47.740;7.606;2023-03-12T00:44:05;5.10;99.90
7502;DHT22;3792;47.740;7.606;2023-03-12T00:46:32;5.20;99.90
7502;DHT22;3792;47.740;7.606;2023-03-12T00:48:59;5.20;99.90
7502;DHT22;3792;47.740;7.606;2023-03-12T00:51:26;5.20;99.90
7502;DHT22;3792;47.740;7.606;2023-03-12T00:53:53;5.20;99.90
7502;DHT22;3792;47.740;7.606;2023-03-12T00:56:21;5.30;99.90
7502;DHT22;3792;47.740;7.606;2023-03-12T00:58:49;5.30;99.90
7502;DHT22;3792;47.740;7.606;2023-03-12T01:01:16;5.20;99.90
7502;DHT22;3792;47.740;7.606;2023-03-12T01:03:44;5.30;99.90
7502;DHT22;3792;47.740;7.606;2023-03-12T01:06:12;5.30;99.90
7502;DHT22;3792;47.740;7.606;2023-03-12T01:08:39;5.30;99.90
7502;DHT22;3792;47.740;7.606;2023-03-12T01:11:06;5.30;99.90
7502;DHT22;3792;47.740;7.606;2023-03-12T01:13:33;5.30;99.90
7502;DHT22;3792;47.740;7.606;2023-03-12T01:16:01;5.20;99.90
7502;DHT22;3792;47.740;7.606;2023-03-12T01:18:28;5.20;99.90
7502;DHT22;3792;47.740;7.606;2023-03-12T01:20:55;5.30;99.90
7502;DHT22;3792;47.740;7.606;2023-03-12T01:23:23;5.30;99.90
7502;DHT22;3792;47.740;7.606;2023-03-12T01:25:51;5.40;99.90
7502;DHT22;3792;47.740;7.606;2023-03-12T01:28:20;5.40;99.90
7502;DHT22;3792;47.740;7.606;2023-03-12T01:30:47;5.40;99.90
7502;DHT22;3792;47.740;7.606;2023-03-12T01:33:16;5.50;99.90
7502;DHT22;3792;47.740;7.606;2023-03-12T01:35:43;5.50;99.90
7502;DHT22;3792;47.740;7.606;2023-03-12T01:38:13;5.50;99.90
7502;DHT22;3792;47.740;7.606;2023-03-12T01:40:41;5.50;99.90
7502;DHT22;3792;47.740;7.606;2023-03-12T01:43:27;5.50;99.90
7502;DHT22;3792;47.740;7.606;2023-03-12T01:46:13;5.50;99.90
7502;DHT22;3792;47.740;7.606;2023-03-12T01:48:46;5.50;99.90
7502;DHT22;3792;47.740;7.606;2023-03-12T01:51:15;5.50;99.90
7502;DHT22;3792;47.740;7.606;2023-03-12T01:53:46;5.50;99.90
7502;DHT22;3792;47.740;7.606;2023-03-12T01:56:16;5.40;99.90
7502;DHT22;3792;47.740;7.606;2023-03-12T01:58:47;5.40;99.90
7502;DHT22;3792;47.740;7.606;2023-03-12T02:01:15;5.40;99.90
7502;DHT22;3792;47.740;7.606;2023-03-12T02:03:47;5.40;99.90
7502;DHT22;3792;47.740;7.606;2023-03-12T02:06:15;5.40;99.90
7502;DHT22;3792;47.740;7.606;2023-03-12T02:08:46;5.40;99.90
7502;DHT22;3792;47.740;7.606;2023-03-12T02:11:14;5.40;99.90
7502;DHT22;3792;47.740;7.606;2023-03-12T02:13:41;5.50;99.90
7502;DHT22;3792;47.740;7.606;2023-03-12T02:16:08;5.50;99.90
7502;DHT22;3792;47.740;7.606;2023-03-12T02:18:35;5.40;99.90
7502;DHT22;3792;47.740;7.606;2023-03-12T02:21:13;5.40;99.90
7502;DHT22;3792;47.740;7.606;2023-03-12T02:23:45;5.50;99.90
7502;DHT22;3792;47.740;7.606;2023-03-12T02:26:15;5.40;99.90
7502;DHT22;3792;47.740;7.606;2023-03-12T02:28:43;5.40;99.90
7502;DHT22;3792;47.740;7.606;2023-03-12T02:31:13;5.40;99.90
7502;DHT22;3792;47.740;7.606;2023-03-12T02:33:41;5.40;99.90
7502;DHT22;3792;47.740;7.606;2023-03-12T02:36:08;5.50;99.90
7502;DHT22;3792;47.740;7.606;2023-03-12T02:38:43;5.40;99.90
7502;DHT22;3792;47.740;7.606;2023-03-12T02:41:16;5.40;99.90
7502;DHT22;3792;47.740;7.606;2023-03-12T02:43:45;5.40;99.90
7502;DHT22;3792;47.740;7.606;2023-03-12T02:46:13;5.40;99.90
7502;DHT22;3792;47.740;7.606;2023-03-12T02:48:41;5.40;99.90
7502;DHT22;3792;47.740;7.606;2023-03-12T02:51:08;5.40;99.90
7502;DHT22;3792;47.740;7.606;2023-03-12T02:53:35;5.30;99.90
7502;DHT22;3792;47.740;7.606;2023-03-12T02:56:03;5.40;99.90
7502;DHT22;3792;47.740;7.606;2023-03-12T02:58:31;5.40;99.90
7502;DHT22;3792;47.740;7.606;2023-03-12T03:00:59;5.50;99.90
7502;DHT22;3792;47.740;7.606;2023-03-12T03:03:26;5.50;99.90
7502;DHT22;3792;47.740;7.606;2023-03-12T03:05:53;5.50;99.90
7502;DHT22;3792;47.740;7.606;2023-03-12T03:08:20;5.50;99.90
7502;DHT22;3792;47.740;7.606;2023-03-12T03:10:49;5.50;99.90
7502;DHT22;3792;47.740;7.606;2023-03-12T03:13:17;5.60;99.90
7502;DHT22;3792;47.740;7.606;2023-03-12T03:15:45;5.60;99.90
7502;DHT22;3792;47.740;7.606;2023-03-12T03:18:12;5.60;99.90
7502;DHT22;3792;47.740;7.606;2023-03-12T03:20:40;5.70;99.90
7502;DHT22;3792;47.740;7.606;2023-03-12T03:23:09;5.80;99.90
7502;DHT22;3792;47.740;7.606;2023-03-12T03:25:36;5.80;99.90
7502;DHT22;3792;47.740;7.606;2023-03-12T03:28:03;5.80;99.90
7502;DHT22;3792;47.740;7.606;2023-03-12T03:30:30;5.90;99.90
7502;DHT22;3792;47.740;7.606;2023-03-12T03:32:58;5.90;99.90
7502;DHT22;3792;47.740;7.606;2023-03-12T03:35:26;5.90;99.90
7502;DHT22;3792;47.740;7.606;2023-03-12T03:37:53;5.90;99.90
7502;DHT22;3792;47.740;7.606;2023-03-12T03:40:20;5.80;99.90
7502;DHT22;3792;47.740;7.606;2023-03-12T03:42:47;5.90;99.90
7502;DHT22;3792;47.740;7.606;2023-03-12T03:45:14;5.90;99.90
7502;DHT22;3792;47.740;7.606;2023-03-12T03:47:42;5.90;99.90
7502;DHT22;3792;47.740;7.606;2023-03-12T03:50:11;5.90;99.90
7502;DHT22;3792;47.740;7.606;2023-03-12T03:52:38;5.90;99.90
7502;DHT22;3792;47.740;7.606;2023-03-12T03:55:05;5.90;99.90
7502;DHT22;3792;47.740;7.606;2023-03-12T03:57:32;5.70;99.90
7502;DHT22;3792;47.740;7.606;2023-03-12T04:00:00;5.70;99.90
7502;DHT22;3792;47.740;7.606;2023-03-12T04:02:27;5.70;99.90
7502;DHT22;3792;47.740;7.606;2023-03-12T04:04:56;5.80;99.90
7502;DHT22;3792;47.740;7.606;2023-03-12T04:07:25;5.80;99.90
7502;DHT22;3792;47.740;7.606;2023-03-12T04:09:52;5.80;99.90
7502;DHT22;3792;47.740;7.606;2023-03-12T04:12:20;5.80;99.90
7502;DHT22;3792;47.740;7.606;2023-03-12T04:14:48;5.90;99.90
7502;DHT22;3792;47.740;7.606;2023-03-12T04:17:15;5.80;99.90
7502;DHT22;3792;47.740;7.606;2023-03-12T04:19:42;5.80;99.90
7502;DHT22;3792;47.740;7.606;2023-03-12T04:22:09;5.80;99.90
7502;DHT22;3792;47.740;7.606;2023-03-12T04:24:38;5.80;99.90
7502;DHT22;3792;47.740;7.606;2023-03-12T04:27:05;5.90;99.90
7502;DHT22;3792;47.740;7.606;2023-03-12T04:29:32;5.90;99.90
7502;DHT22;3792;47.740;7.606;2023-03-12T04:31:59;5.90;99.90
7502;DHT22;3792;47.740;7.606;2023-03-12T04:34:26;5.90;99.90
7502;DHT22;3792;47.740;7.606;2023-03-12T04:36:53;5.90;99.90
7502;DHT22;3792;47.740;7.606;2023-03-12T04:39:20;5.90;99.90
7502;DHT22;3792;47.740;7.606;2023-03-12T04:41:48;5.90;99.90
7502;DHT22;3792;47.740;7.606;2023-03-12T04:44:16;6.00;99.90
7502;DHT22;3792;47.740;7.606;2023-03-12T04:46:45;6.00;99.90
7502;DHT22;3792;47.740;7.606;2023-03-12T04:49:12;6.10;99.90
7502;DHT22;3792;47.740;7.606;2023-03-12T04:51:40;6.10;99.90
7502;DHT22;3792;47.740;7.606;2023-03-12T04:54:07;6.20;99.90
7502;DHT22;3792;47.740;7.606;2023-03-12T04:56:34;6.20;99.90
7502;DHT22;3792;47.740;7.606;2023-03-12T04:59:03;6.20;99.90
7502;DHT22;3792;47.740;7.606;2023-03-12T05:01:32;6.20;99.90
7502;DHT22;3792;47.740;7.606;2023-03-12T05:04:00;6.20;99.90
7502;DHT22;3792;47.740;7.606;2023-03-12T05:06:27;6.20;99.90
7502;DHT22;3792;47.740;7.606;2023-03-12T05:08:55;6.30;99.90
7502;DHT22;3792;47.740;7.606;2023-03-12T05:11:22;6.30;99.90
7502;DHT22;3792;47.740;7.606;2023-03-12T05:13:49;6.20;99.90
7502;DHT22;3792;47.740;7.606;2023-03-12T05:16:18;6.20;99.90
7502;DHT22;3792;47.740;7.606;2023-03-12T05:18:45;6.20;99.90
7502;DHT22;3792;47.740;7.606;2023-03-12T05:21:15;6.20;99.90
7502;DHT22;3792;47.740;7.606;2023-03-12T05:23:42;6.20;99.90
7502;DHT22;3792;47.740;7.606;2023-03-12T05:26:16;6.20;99.90
7502;DHT22;3792;47.740;7.606;2023-03-12T05:28:43;6.20;99.90
7502;DHT22;3792;47.740;7.606;2023-03-12T05:31:11;6.20;99.90
7502;DHT22;3792;47.740;7.606;2023-03-12T05:33:39;6.20;99.90
7502;DHT22;3792;47.740;7.606;2023-03-12T05:36:07;6.20;99.90
7502;DHT22;3792;47.740;7.606;2023-03-12T05:38:34;6.20;99.90
7502;DHT22;3792;47.740;7.606;2023-03-12T05:41:02;6.10;99.90
7502;DHT22;3792;47.740;7.606;2023-03-12T05:43:29;6.10;99.90
7502;DHT22;3792;47.740;7.606;2023-03-12T05:45:58;6.00;99.90
7502;DHT22;3792;47.740;7.606;2023-03-12T05:48:26;5.90;99.90
7502;DHT22;3792;47.740;7.606;2023-03-12T05:50:55;5.80;99.90
7502;DHT22;3792;47.740;7.606;2023-03-12T05:53:22;5.80;99.90
7502;DHT22;3792;47.740;7.606;2023-03-12T05:55:49;5.80;99.90
7502;DHT22;3792;47.740;7.606;2023-03-12T05:58:16;5.80;99.90
7502;DHT22;3792;47.740;7.606;2023-03-12T06:00:43;5.80;99.90
7502;DHT22;3792;47.740;7.606;2023-03-12T06:03:11;5.90;99.90
7502;DHT22;3792;47.740;7.606;2023-03-12T06:05:38;5.90;99.90
7502;DHT22;3792;47.740;7.606;2023-03-12T06:08:07;6.00;99.90
7502;DHT22;3792;47.740;7.606;2023-03-12T06:10:36;6.10;99.90
7502;DHT22;3792;47.740;7.606;2023-03-12T06:13:04;6.20;99.90
7502;DHT22;3792;47.740;7.606;2023-03-12T06:15:31;6.30;99.90
7502;DHT22;3792;47.740;7.606;2023-03-12T06:17:58;6.50;99.90
7502;DHT22;3792;47.740;7.606;2023-03-12T06:20:25;6.60;99.90
7502;DHT22;3792;47.740;7.606;2023-03-12T06:22:52;6.70;99.90
7502;DHT22;3792;47.740;7.606;2023-03-12T06:25:21;6.70;99.90
7502;DHT22;3792;47.740;7.606;2023-03-12T06:27:48;6.70;99.90
7502;DHT22;3792;47.740;7.606;2023-03-12T06:30:15;6.70;99.90
7502;DHT22;3792;47.740;7.606;2023-03-12T06:32:42;6.70;99.90
7502;DHT22;3792;47.740;7.606;2023-03-12T06:35:09;6.70;99.90
7502;DHT22;3792;47.740;7.606;2023-03-12T06:37:36;6.70;99.90
7502;DHT22;3792;47.740;7.606;2023-03-12T06:40:04;6.70;99.90
7502;DHT22;3792;47.740;7.606;2023-03-12T06:42:44;6.70;99.90
7502;DHT22;3792;47.740;7.606;2023-03-12T06:45:12;6.60;99.90
7502;DHT22;3792;47.740;7.606;2023-03-12T06:47:39;6.50;99.90
7502;DHT22;3792;47.740;7.606;2023-03-12T06:50:06;6.50;99.90
7502;DHT22;3792;47.740;7.606;2023-03-12T06:52:33;6.50;99.90
7502;DHT22;3792;47.740;7.606;2023-03-12T06:55:00;6.60;99.90
7502;DHT22;3792;47.740;7.606;2023-03-12T06:57:28;6.60;99.90
7502;DHT22;3792;47.740;7.606;2023-03-12T06:59:57;6.70;99.90
7502;DHT22;3792;47.740;7.606;2023-03-12T07:02:24;6.80;99.90
7502;DHT22;3792;47.740;7.606;2023-03-12T07:04:51;6.80;99.90
7502;DHT22;3792;47.740;7.606;2023-03-12T07:07:18;6.90;99.90
7502;DHT22;3792;47.740;7.606;2023-03-12T07:09:45;7.00;99.90
7502;DHT22;3792;47.740;7.606;2023-03-12T07:12:12;7.00;99.90
7502;DHT22;3792;47.740;7.606;2023-03-12T07:14:39;7.10;99.90
7502;DHT22;3792;47.740;7.606;2023-03-12T07:17:08;7.30;99.90
7502;DHT22;3792;47.740;7.606;2023-03-12T07:19:35;7.30;99.90
7502;DHT22;3792;47.740;7.606;2023-03-12T07:22:02;7.50;99.90
7502;DHT22;3792;47.740;7.606;2023-03-12T07:24:29;7.60;99.90
7502;DHT22;3792;47.740;7.606;2023-03-12T07:26:56;7.70;99.90
7502;DHT22;3792;47.740;7.606;2023-03-12T07:29:23;7.90;99.90
7502;DHT22;3792;47.740;7.606;2023-03-12T07:31:50;8.00;99.90
7502;DHT22;3792;47.740;7.606;2023-03-12T07:34:18;8.10;99.90
7502;DHT22;3792;47.740;7.606;2023-03-12T07:36:45;8.20;99.90
7502;DHT22;3792;47.740;7.606;2023-03-12T07:39:12;8.40;99.90
7502;DHT22;3792;47.740;7.606;2023-03-12T07:41:39;8.50;99.90
7502;DHT22;3792;47.740;7.606;2023-03-12T07:44:07;8.60;99.90
7502;DHT22;3792;47.740;7.606;2023-03-12T07:46:34;8.70;99.90
7502;DHT22;3792;47.740;7.606;2023-03-12T07:49:01;8.80;99.90
7502;DHT22;3792;47.740;7.606;2023-03-12T07:51:30;8.90;99.90
7502;DHT22;3792;47.740;7.606;2023-03-12T07:53:57;9.00;99.90
7502;DHT22;3792;47.740;7.606;2023-03-12T07:56:24;9.10;99.90
7502;DHT22;3792;47.740;7.606;2023-03-12T07:58:52;9.20;99.90
7502;DHT22;3792;47.740;7.606;2023-03-12T08:01:23;9.20;99.90
7502;DHT22;3792;47.740;7.606;2023-03-12T08:03:56;9.20;99.90
7502;DHT22;3792;47.740;7.606;2023-03-12T08:06:23;9.50;99.90
7502;DHT22;3792;47.740;7.606;2023-03-12T08:08:52;9.70;99.90
7502;DHT22;3792;47.740;7.606;2023-03-12T08:11:19;9.90;99.90
7502;DHT22;3792;47.740;7.606;2023-03-12T08:13:46;10.10;99.90
7502;DHT22;3792;47.740;7.606;2023-03-12T08:16:13;10.10;99.90
7502;DHT22;3792;47.740;7.606;2023-03-12T08:18:40;10.10;99.90
7502;DHT22;3792;47.740;7.606;2023-03-12T08:21:08;10.00;99.90
7502;DHT22;3792;47.740;7.606;2023-03-12T08:23:35;9.90;99.90
7502;DHT22;3792;47.740;7.606;2023-03-12T08:26:04;9.80;99.90
7502;DHT22;3792;47.740;7.606;2023-03-12T08:28:31;9.70;99.90
7502;DHT22;3792;47.740;7.606;2023-03-12T08:30:59;9.60;99.90
7502;DHT22;3792;47.740;7.606;2023-03-12T08:33:27;9.50;99.90
7502;DHT22;3792;47.740;7.606;2023-03-12T08:35:54;9.60;99.90
7502;DHT22;3792;47.740;7.606;2023-03-12T08:38:21;9.70;99.90
7502;DHT22;3792;47.740;7.606;2023-03-12T08:40:54;9.70;99.90
7502;DHT22;3792;47.740;7.606;2023-03-12T08:43:25;9.70;99.90
7502;DHT22;3792;47.740;7.606;2023-03-12T08:45:53;9.70;99.90
7502;DHT22;3792;47.740;7.606;2023-03-12T08:48:20;9.70;99.90
7502;DHT22;3792;47.740;7.606;2023-03-12T08:50:47;9.60;99.90
7502;DHT22;3792;47.740;7.606;2023-03-12T08:53:14;9.60;99.90
7502;DHT22;3792;47.740;7.606;2023-03-12T08:55:42;9.60;99.90
7502;DHT22;3792;47.740;7.606;2023-03-12T08:58:10;9.60;99.90
7502;DHT22;3792;47.740;7.606;2023-03-12T09:00:38;9.50;99.90
7502;DHT22;3792;47.740;7.606;2023-03-12T09:03:05;9.60;99.90
7502;DHT22;3792;47.740;7.606;2023-03-12T09:05:33;9.70;99.90
7502;DHT22;3792;47.740;7.606;2023-03-12T09:08:00;9.70;99.90
7502;DHT22;3792;47.740;7.606;2023-03-12T09:10:27;9.80;99.90
7502;DHT22;3792;47.740;7.606;2023-03-12T09:12:54;9.80;99.90
7502;DHT22;3792;47.740;7.606;2023-03-12T09:15:21;9.90;99.90
7502;DHT22;3792;47.740;7.606;2023-03-12T09:17:49;9.90;99.90
7502;DHT22;3792;47.740;7.606;2023-03-12T09:20:19;9.90;99.90
7502;DHT22;3792;47.740;7.606;2023-03-12T09:22:47;10.00;99.90
7502;DHT22;3792;47.740;7.606;2023-03-12T09:25:14;10.00;99.90
7502;DHT22;3792;47.740;7.606;2023-03-12T09:27:43;9.90;99.90
7502;DHT22;3792;47.740;7.606;2023-03-12T09:30:13;9.90;99.90
7502;DHT22;3792;47.740;7.606;2023-03-12T09:32:40;9.80;99.90
7502;DHT22;3792;47.740;7.606;2023-03-12T09:35:11;9.80;99.90
7502;DHT22;3792;47.740;7.606;2023-03-12T09:37:38;9.90;99.90
7502;DHT22;3792;47.740;7.606;2023-03-12T09:40:07;9.90;99.90
7502;DHT22;3792;47.740;7.606;2023-03-12T09:42:40;10.00;99.90
7502;DHT22;3792;47.740;7.606;2023-03-12T09:45:14;10.00;99.90
7502;DHT22;3792;47.740;7.606;2023-03-12T09:47:46;10.10;99.90
7502;DHT22;3792;47.740;7.606;2023-03-12T09:50:22;10.30;99.90
7502;DHT22;3792;47.740;7.606;2023-03-12T09:52:54;10.50;99.90
7502;DHT22;3792;47.740;7.606;2023-03-12T09:55:23;10.60;99.90
7502;DHT22;3792;47.740;7.606;2023-03-12T09:57:51;10.60;99.90
7502;DHT22;3792;47.740;7.606;2023-03-12T10:00:21;10.70;99.90
7502;DHT22;3792;47.740;7.606;2023-03-12T10:03:06;10.70;99.90
7502;DHT22;3792;47.740;7.606;2023-03-12T10:05:44;10.60;99.90
7502;DHT22;3792;47.740;7.606;2023-03-12T10:08:19;10.60;99.90
7502;DHT22;3792;47.740;7.606;2023-03-12T10:10:53;10.70;99.90
7502;DHT22;3792;47.740;7.606;2023-03-12T10:13:40;10.70;99.90
7502;DHT22;3792;47.740;7.606;2023-03-12T10:16:17;10.70;99.90
7502;DHT22;3792;47.740;7.606;2023-03-12T10:19:16;10.80;99.90
7502;DHT22;3792;47.740;7.606;2023-03-12T10:21:56;11.00;99.90
7502;DHT22;3792;47.740;7.606;2023-03-12T10:24:38;11.00;99.90
7502;DHT22;3792;47.740;7.606;2023-03-12T10:27:11;11.00;99.90
7502;DHT22;3792;47.740;7.606;2023-03-12T10:29:41;11.00;99.90
7502;DHT22;3792;47.740;7.606;2023-03-12T10:32:13;10.90;99.90
7502;DHT22;3792;47.740;7.606;2023-03-12T10:34:44;10.90;99.90
7502;DHT22;3792;47.740;7.606;2023-03-12T10:37:16;10.90;99.90
7502;DHT22;3792;47.740;7.606;2023-03-12T10:39:44;10.90;99.90
7502;DHT22;3792;47.740;7.606;2023-03-12T10:42:13;10.80;99.90
7502;DHT22;3792;47.740;7.606;2023-03-12T10:44:41;10.80;99.90
7502;DHT22;3792;47.740;7.606;2023-03-12T10:47:27;10.80;99.90
7502;DHT22;3792;47.740;7.606;2023-03-12T10:50:12;10.70;99.90
7502;DHT22;3792;47.740;7.606;2023-03-12T10:52:40;10.80;99.90
7502;DHT22;3792;47.740;7.606;2023-03-12T10:55:15;11.00;99.90
7502;DHT22;3792;47.740;7.606;2023-03-12T10:57:46;11.20;99.90
7502;DHT22;3792;47.740;7.606;2023-03-12T11:00:18;11.80;99.90
7502;DHT22;3792;47.740;7.606;2023-03-12T11:02:46;12.40;99.90
7502;DHT22;3792;47.740;7.606;2023-03-12T11:05:22;12.80;99.90
7502;DHT22;3792;47.740;7.606;2023-03-12T11:07:51;13.00;99.90
7502;DHT22;3792;47.740;7.606;2023-03-12T11:10:22;13.00;99.90
7502;DHT22;3792;47.740;7.606;2023-03-12T11:13:02;12.90;99.90
7502;DHT22;3792;47.740;7.606;2023-03-12T11:15:37;12.80;99.90
7502;DHT22;3792;47.740;7.606;2023-03-12T11:18:20;13.20;99.90
7502;DHT22;3792;47.740;7.606;2023-03-12T11:20:50;13.20;99.90
7502;DHT22;3792;47.740;7.606;2023-03-12T11:23:23;13.00;99.90
7502;DHT22;3792;47.740;7.606;2023-03-12T11:25:56;12.90;99.90
7502;DHT22;3792;47.740;7.606;2023-03-12T11:28:30;13.00;99.90
7502;DHT22;3792;47.740;7.606;2023-03-12T11:31:00;13.50;99.90
7502;DHT22;3792;47.740;7.606;2023-03-12T11:33:27;13.50;99.90
7502;DHT22;3792;47.740;7.606;2023-03-12T11:36:17;13.30;99.90
7502;DHT22;3792;47.740;7.606;2023-03-12T11:38:52;13.10;99.90
7502;DHT22;3792;47.740;7.606;2023-03-12T11:41:47;12.90;99.90
7502;DHT22;3792;47.740;7.606;2023-03-12T11:44:24;13.00;99.90
7502;DHT22;3792;47.740;7.606;2023-03-12T11:47:08;13.50;99.90
7502;DHT22;3792;47.740;7.606;2023-03-12T11:49:55;14.10;99.90
7502;DHT22;3792;47.740;7.606;2023-03-12T11:52:29;14.20;99.90
7502;DHT22;3792;47.740;7.606;2023-03-12T11:55:16;13.80;99.90
7502;DHT22;3792;47.740;7.606;2023-03-12T11:57:54;13.50;99.90
7502;DHT22;3792;47.740;7.606;2023-03-12T12:00:27;13.30;99.90
7502;DHT22;3792;47.740;7.606;2023-03-12T12:06:01;13.00;99.90
7502;DHT22;3792;47.740;7.606;2023-03-12T12:08:51;13.00;99.90
7502;DHT22;3792;47.740;7.606;2023-03-12T12:11:27;12.90;99.90
7502;DHT22;3792;47.740;7.606;2023-03-12T12:14:06;12.90;99.90
7502;DHT22;3792;47.740;7.606;2023-03-12T12:16:55;13.00;99.90
7502;DHT22;3792;47.740;7.606;2023-03-12T12:19:36;13.80;99.90
7502;DHT22;3792;47.740;7.606;2023-03-12T12:22:23;14.60;99.90
7502;DHT22;3792;47.740;7.606;2023-03-12T12:28:20;14.90;99.90
7502;DHT22;3792;47.740;7.606;2023-03-12T12:31:03;15.60;99.90
7502;DHT22;3792;47.740;7.606;2023-03-12T12:33:44;15.50;99.90
7502;DHT22;3792;47.740;7.606;2023-03-12T12:36:16;15.10;99.90
7502;DHT22;3792;47.740;7.606;2023-03-12T12:38:45;14.60;99.90
7502;DHT22;3792;47.740;7.606;2023-03-12T12:41:17;14.10;99.90
7502;DHT22;3792;47.740;7.606;2023-03-12T12:43:48;13.70;99.90
7502;DHT22;3792;47.740;7.606;2023-03-12T12:46:17;13.50;99.90
7502;DHT22;3792;47.740;7.606;2023-03-12T12:48:47;13.30;99.90
7502;DHT22;3792;47.740;7.606;2023-03-12T12:51:19;13.20;99.90
7502;DHT22;3792;47.740;7.606;2023-03-12T12:53:51;13.10;99.90
7502;DHT22;3792;47.740;7.606;2023-03-12T12:56:24;13.00;99.90
7502;DHT22;3792;47.740;7.606;2023-03-12T12:59:08;13.00;99.90
7502;DHT22;3792;47.740;7.606;2023-03-12T13:01:41;12.90;99.90
7502;DHT22;3792;47.740;7.606;2023-03-12T13:04:10;12.80;99.90
7502;DHT22;3792;47.740;7.606;2023-03-12T13:07:00;12.70;99.90
7502;DHT22;3792;47.740;7.606;2023-03-12T13:09:36;12.70;99.90
7502;DHT22;3792;47.740;7.606;2023-03-12T13:12:13;12.70;99.90
7502;DHT22;3792;47.740;7.606;2023-03-12T13:14:43;12.90;99.90
7502;DHT22;3792;47.740;7.606;2023-03-12T13:17:27;13.00;99.90
7502;DHT22;3792;47.740;7.606;2023-03-12T13:20:16;13.50;99.90
7502;DHT22;3792;47.740;7.606;2023-03-12T13:23:16;13.80;99.90
7502;DHT22;3792;47.740;7.606;2023-03-12T13:25:57;14.20;99.90
7502;DHT22;3792;47.740;7.606;2023-03-12T13:28:37;14.50;99.90
7502;DHT22;3792;47.740;7.606;2023-03-12T13:31:41;14.50;99.90
7502;DHT22;3792;47.740;7.606;2023-03-12T13:34:31;14.30;99.90
7502;DHT22;3792;47.740;7.606;2023-03-12T13:37:18;14.30;99.90
7502;DHT22;3792;47.740;7.606;2023-03-12T13:39:45;14.30;99.90
7502;DHT22;3792;47.740;7.606;2023-03-12T13:42:34;14.20;99.90
7502;DHT22;3792;47.740;7.606;2023-03-12T13:45:25;14.30;99.90
7502;DHT22;3792;47.740;7.606;2023-03-12T13:47:58;14.90;99.90
7502;DHT22;3792;47.740;7.606;2023-03-12T13:50:26;15.00;99.90
7502;DHT22;3792;47.740;7.606;2023-03-12T13:53:01;14.80;99.90
7502;DHT22;3792;47.740;7.606;2023-03-12T13:55:30;14.70;99.90
7502;DHT22;3792;47.740;7.606;2023-03-12T13:58:03;14.70;99.90
7502;DHT22;3792;47.740;7.606;2023-03-12T14:00:37;14.90;99.90
7502;DHT22;3792;47.740;7.606;2023-03-12T14:03:12;15.00;99.70
7502;DHT22;3792;47.740;7.606;2023-03-12T14:05:47;15.30;99.30
7502;DHT22;3792;47.740;7.606;2023-03-12T14:08:41;15.60;98.90
7502;DHT22;3792;47.740;7.606;2023-03-12T14:11:23;15.80;98.40
7502;DHT22;3792;47.740;7.606;2023-03-12T14:17:13;15.80;97.90
7502;DHT22;3792;47.740;7.606;2023-03-12T14:19:46;15.60;97.80
7502;DHT22;3792;47.740;7.606;2023-03-12T14:22:14;15.40;98.30
7502;DHT22;3792;47.740;7.606;2023-03-12T14:24:49;15.00;97.90
7502;DHT22;3792;47.740;7.606;2023-03-12T14:27:23;14.80;98.40
7502;DHT22;3792;47.740;7.606;2023-03-12T14:29:54;14.70;98.40
7502;DHT22;3792;47.740;7.606;2023-03-12T14:32:25;14.50;98.90
7502;DHT22;3792;47.740;7.606;2023-03-12T14:34:57;14.30;98.80
7502;DHT22;3792;47.740;7.606;2023-03-12T14:37:31;14.30;99.00
7502;DHT22;3792;47.740;7.606;2023-03-12T14:40:00;14.30;99.10
7502;DHT22;3792;47.740;7.606;2023-03-12T14:42:31;14.20;99.20
7502;DHT22;3792;47.740;7.606;2023-03-12T14:45:00;14.20;99.10
7502;DHT22;3792;47.740;7.606;2023-03-12T14:47:27;14.10;98.90
7502;DHT22;3792;47.740;7.606;2023-03-12T14:49:56;14.10;98.70
7502;DHT22;3792;47.740;7.606;2023-03-12T14:52:26;14.00;99.30
7502;DHT22;3792;47.740;7.606;2023-03-12T14:54:56;14.00;99.20
7502;DHT22;3792;47.740;7.606;2023-03-12T14:57:23;14.00;98.70
7502;DHT22;3792;47.740;7.606;2023-03-12T14:59:55;14.00;99.00
7502;DHT22;3792;47.740;7.606;2023-03-12T15:02:23;14.00;99.20
7502;DHT22;3792;47.740;7.606;2023-03-12T15:04:53;14.00;99.70
7502;DHT22;3792;47.740;7.606;2023-03-12T15:07:26;14.00;99.90
7502;DHT22;3792;47.740;7.606;2023-03-12T15:09:55;13.90;99.90
7502;DHT22;3792;47.740;7.606;2023-03-12T15:12:23;13.90;99.90
7502;DHT22;3792;47.740;7.606;2023-03-12T15:14:54;14.00;99.90
7502;DHT22;3792;47.740;7.606;2023-03-12T15:17:24;14.10;99.90
7502;DHT22;3792;47.740;7.606;2023-03-12T15:19:52;14.30;99.90
7502;DHT22;3792;47.740;7.606;2023-03-12T15:22:24;14.40;99.90
7502;DHT22;3792;47.740;7.606;2023-03-12T15:24:53;14.50;99.90
7502;DHT22;3792;47.740;7.606;2023-03-12T15:27:30;14.70;99.90
7502;DHT22;3792;47.740;7.606;2023-03-12T15:30:00;14.70;99.90
7502;DHT22;3792;47.740;7.606;2023-03-12T15:32:27;14.70;99.90
7502;DHT22;3792;47.740;7.606;2023-03-12T15:34:56;14.70;99.90
7502;DHT22;3792;47.740;7.606;2023-03-12T15:37:27;14.70;99.90
7502;DHT22;3792;47.740;7.606;2023-03-12T15:39:58;14.70;99.90
7502;DHT22;3792;47.740;7.606;2023-03-12T15:42:27;14.70;99.90
7502;DHT22;3792;47.740;7.606;2023-03-12T15:44:56;14.80;99.90
7502;DHT22;3792;47.740;7.606;2023-03-12T15:47:25;14.80;99.90
7502;DHT22;3792;47.740;7.606;2023-03-12T15:49:55;14.60;99.90
7502;DHT22;3792;47.740;7.606;2023-03-12T15:52:30;14.50;99.90
7502;DHT22;3792;47.740;7.606;2023-03-12T15:55:03;14.50;99.90
7502;DHT22;3792;47.740;7.606;2023-03-12T15:57:31;14.40;99.90
7502;DHT22;3792;47.740;7.606;2023-03-12T16:00:20;14.40;99.90
7502;DHT22;3792;47.740;7.606;2023-03-12T16:02:53;14.60;99.90
7502;DHT22;3792;47.740;7.606;2023-03-12T16:05:22;14.70;99.90
7502;DHT22;3792;47.740;7.606;2023-03-12T16:07:52;14.90;99.90
7502;DHT22;3792;47.740;7.606;2023-03-12T16:10:22;15.00;99.90
7502;DHT22;3792;47.740;7.606;2023-03-12T16:12:57;15.00;99.90
7502;DHT22;3792;47.740;7.606;2023-03-12T16:15:28;15.00;99.90
7502;DHT22;3792;47.740;7.606;2023-03-12T16:17:56;14.90;99.90
7502;DHT22;3792;47.740;7.606;2023-03-12T16:20:23;14.70;99.90
7502;DHT22;3792;47.740;7.606;2023-03-12T16:22:52;14.60;99.90
7502;DHT22;3792;47.740;7.606;2023-03-12T16:25:19;14.60;99.90
7502;DHT22;3792;47.740;7.606;2023-03-12T16:27:48;14.40;99.90
7502;DHT22;3792;47.740;7.606;2023-03-12T16:30:19;14.40;99.90
7502;DHT22;3792;47.740;7.606;2023-03-12T16:32:48;14.30;99.90
7502;DHT22;3792;47.740;7.606;2023-03-12T16:35:17;14.20;99.90
7502;DHT22;3792;47.740;7.606;2023-03-12T16:37:44;14.20;99.90
7502;DHT22;3792;47.740;7.606;2023-03-12T16:40:14;14.20;99.90
7502;DHT22;3792;47.740;7.606;2023-03-12T16:42:44;14.30;99.90
7502;DHT22;3792;47.740;7.606;2023-03-12T16:45:13;14.30;99.90